createdAt,value
2023-05-17T00:02:48.943Z,95712.63
2023-05-17T00:07:51.851Z,95703.53
2023-05-17T00:12:54.601Z,95710.72
2023-05-17T00:17:57.773Z,95678.94
2023-05-17T00:23:01.178Z,95687.03
2023-05-17T00:28:03.565Z,95664.06
2023-05-17T00:33:06.353Z,95652.84
2023-05-17T00:38:09.028Z,95647.09
2023-05-17T00:43:12.816Z,95644.00
2023-05-17T00:48:16.554Z,95655.25
2023-05-17T00:53:20.244Z,95661.59
2023-05-17T00:58:24.420Z,95645.78
2023-05-17T01:03:28.496Z,95661.22
2023-05-17T01:08:31.516Z,95635.28
2023-05-17T01:13:40.264Z,95686.78
2023-05-17T01:18:57.067Z,95679.03
2023-05-17T01:24:18.375Z,95660.75
2023-05-17T01:29:23.492Z,95679.38
2023-05-17T01:34:30.487Z,95666.25
2023-05-17T01:39:33.446Z,95655.84
2023-05-17T01:44:46.596Z,95646.88
2023-05-17T01:49:53.786Z,95630.75
2023-05-17T01:55:15.178Z,95630.63
2023-05-17T02:00:19.003Z,95611.25
2023-05-17T02:05:22.058Z,95574.44
2023-05-17T02:10:24.489Z,95587.69
2023-05-17T02:15:27.344Z,95604.56
2023-05-17T02:20:30.148Z,95605.28
2023-05-17T02:25:33.094Z,95608.16
2023-05-17T02:30:35.510Z,95585.22
2023-05-17T02:35:38.189Z,95592.16
2023-05-17T02:40:42.557Z,95587.13
2023-05-17T02:45:45.787Z,95606.56
2023-05-17T02:50:49.162Z,95628.59
2023-05-17T02:55:52.016Z,95625.59
2023-05-17T03:00:55.302Z,95617.59
2023-05-17T03:06:02.571Z,95591.66
2023-05-17T03:11:05.125Z,95627.38
2023-05-17T03:16:09.771Z,95631.81
2023-05-17T03:21:12.491Z,95631.78
2023-05-17T03:26:15.901Z,95642.88
2023-05-17T03:31:23.783Z,95634.16
2023-05-17T03:36:26.851Z,95628.41
2023-05-17T03:41:30.059Z,95622.94
2023-05-17T03:46:33.021Z,95655.19
2023-05-17T03:51:36.374Z,95633.66
2023-05-17T03:56:39.398Z,95636.88
2023-05-17T04:01:43.920Z,95643.69
2023-05-17T04:06:46.725Z,95605.97
2023-05-17T04:11:49.727Z,95650.34
2023-05-17T04:16:52.860Z,95658.72
2023-05-17T04:21:55.232Z,95642.56
2023-05-17T04:27:02.037Z,95641.75
2023-05-17T04:32:06.774Z,95626.03
2023-05-17T04:37:09.686Z,95627.38
2023-05-17T04:42:13.718Z,95635.84
2023-05-17T04:47:22.744Z,95601.66
2023-05-17T04:52:25.713Z,95645.94
2023-05-17T04:57:28.845Z,95651.47
2023-05-17T05:02:37.508Z,95647.59
2023-05-17T05:07:44.028Z,95648.78
2023-05-17T05:12:48.395Z,95650.78
2023-05-17T05:17:51.673Z,95630.47
2023-05-17T05:22:57.692Z,95635.53
2023-05-17T05:28:00.664Z,95627.41
2023-05-17T05:33:06.195Z,95639.13
2023-05-17T05:38:11.134Z,95627.13
2023-05-17T05:43:14.361Z,95643.16
2023-05-17T05:48:20.524Z,95650.88
2023-05-17T05:53:23.000Z,95652.59
2023-05-17T05:58:32.564Z,95640.97
2023-05-17T06:03:37.261Z,95624.59
2023-05-17T06:08:39.716Z,95614.94
2023-05-17T06:13:42.662Z,95631.91
2023-05-17T06:18:45.100Z,95616.59
2023-05-17T06:23:47.926Z,95600.66
2023-05-17T06:28:50.837Z,95627.66
2023-05-17T06:33:53.752Z,95635.47
2023-05-17T06:38:56.612Z,95625.13
2023-05-17T06:43:59.319Z,95620.69
2023-05-17T06:49:02.254Z,95618.06
2023-05-17T06:54:04.626Z,95618.06
2023-05-17T06:59:07.438Z,95625.34
2023-05-17T07:04:09.746Z,95612.91
2023-05-17T07:09:12.596Z,95632.75
2023-05-17T07:14:15.302Z,95617.75
2023-05-17T07:19:17.691Z,95626.31
2023-05-17T07:24:20.555Z,95622.84
2023-05-17T07:29:23.380Z,95605.47
2023-05-17T07:34:25.828Z,95576.38
2023-05-17T07:39:28.635Z,95596.19
2023-05-17T07:44:31.204Z,95610.75
2023-05-17T07:49:33.959Z,95616.56
2023-05-17T07:54:36.504Z,95611.66
2023-05-17T07:59:39.261Z,95625.34
2023-05-17T08:04:42.271Z,95617.31
2023-05-17T08:09:45.649Z,95622.56
2023-05-17T08:14:48.052Z,95626.59
2023-05-17T08:19:51.036Z,95608.00
2023-05-17T08:24:53.794Z,95610.94
2023-05-17T08:29:58.079Z,95608.78
2023-05-17T08:35:00.777Z,95623.88
2023-05-17T08:40:05.185Z,95636.19
2023-05-17T08:45:08.923Z,95626.66
2023-05-17T08:50:13.097Z,95628.47
2023-05-17T08:55:16.799Z,95633.38
2023-05-17T09:00:22.436Z,95637.69
2023-05-17T09:05:25.952Z,95643.38
2023-05-17T09:10:31.027Z,95651.41
2023-05-17T09:15:34.748Z,95650.38
2023-05-17T09:20:39.240Z,95656.69
2023-05-17T09:25:51.180Z,95658.84
2023-05-17T09:30:53.954Z,95673.69
2023-05-17T09:35:56.380Z,95666.94
2023-05-17T09:40:59.257Z,95656.81
2023-05-17T09:46:02.096Z,95667.41
2023-05-17T09:51:05.137Z,95663.84
2023-05-17T09:56:08.516Z,95665.84
2023-05-17T10:01:14.279Z,95691.13
2023-05-17T10:06:38.203Z,95677.22
2023-05-17T10:11:46.945Z,95675.81
2023-05-17T10:16:51.602Z,95672.19
2023-05-17T10:21:55.087Z,95646.94
2023-05-17T10:27:00.659Z,95664.09
2023-05-17T10:32:09.739Z,95689.38
2023-05-17T10:37:13.904Z,95657.63
2023-05-17T10:42:19.315Z,95686.81
2023-05-17T10:47:22.818Z,95668.63
2023-05-17T10:52:27.768Z,95662.50
2023-05-17T10:57:50.694Z,95660.13
2023-05-17T11:03:15.687Z,95646.03
2023-05-17T11:08:18.932Z,95673.59
2023-05-17T11:13:30.172Z,95672.59
2023-05-17T11:18:49.155Z,95668.78
2023-05-17T11:23:58.638Z,95656.84
2023-05-17T11:29:11.503Z,95653.25
2023-05-17T11:34:14.337Z,95654.69
2023-05-17T11:39:23.992Z,95655.50
2023-05-17T11:44:45.032Z,95647.97
2023-05-17T11:49:47.929Z,95673.91
2023-05-17T11:54:52.108Z,95640.50
2023-05-17T12:00:04.374Z,95629.78
2023-05-17T12:05:20.940Z,95673.31
2023-05-17T12:10:37.488Z,95667.19
2023-05-17T12:15:41.688Z,95672.16
2023-05-17T12:21:00.658Z,95676.44
2023-05-17T12:26:10.025Z,95689.41
2023-05-17T12:31:19.330Z,95698.81
2023-05-17T12:36:22.861Z,95708.69
2023-05-17T12:41:27.045Z,95683.16
2023-05-17T12:46:29.985Z,95715.75
2023-05-17T12:51:50.090Z,95703.84
2023-05-17T12:56:53.122Z,95747.81
2023-05-17T13:01:57.589Z,95732.22
2023-05-17T13:07:02.649Z,95726.75
2023-05-17T13:12:09.045Z,95690.97
2023-05-17T13:17:32.951Z,95705.47
2023-05-17T13:22:36.222Z,95714.00
2023-05-17T13:27:39.083Z,95737.81
2023-05-17T13:32:41.990Z,95677.34
2023-05-17T13:37:44.800Z,95683.53
2023-05-17T13:42:47.658Z,95710.63
2023-05-17T13:47:50.518Z,95712.69
2023-05-17T13:52:53.600Z,95705.88
2023-05-17T13:57:58.169Z,95722.66
2023-05-17T14:03:01.303Z,95706.19
2023-05-17T14:08:05.136Z,95718.06
2023-05-17T14:13:12.475Z,95671.53
2023-05-17T14:18:15.444Z,95722.78
2023-05-17T14:23:17.823Z,95712.25
2023-05-17T14:28:20.711Z,95727.34
2023-05-17T14:33:23.645Z,95733.88
2023-05-17T14:38:26.069Z,95711.66
2023-05-17T14:43:29.423Z,95739.38
2023-05-17T14:48:33.305Z,95719.00
2023-05-17T14:53:36.188Z,95697.97
2023-05-17T14:58:38.849Z,95736.22
2023-05-17T15:03:41.960Z,95737.34
2023-05-17T15:08:45.298Z,95746.03
2023-05-17T15:13:48.096Z,95721.31
2023-05-17T15:18:51.055Z,95739.72
2023-05-17T15:23:53.810Z,95739.91
2023-05-17T15:28:56.637Z,95733.94
2023-05-17T15:33:59.622Z,95724.75
2023-05-17T15:39:01.947Z,95745.81
2023-05-17T15:44:05.840Z,95745.56
2023-05-17T15:49:08.939Z,95709.69
2023-05-17T15:54:11.932Z,95758.72
2023-05-17T15:59:15.954Z,95748.44
2023-05-17T16:04:18.800Z,95719.75
2023-05-17T16:09:21.814Z,95746.78
2023-05-17T16:14:24.755Z,95718.59
2023-05-17T16:19:30.823Z,95733.06
2023-05-17T16:24:34.158Z,95733.28
2023-05-17T16:29:40.441Z,95749.34
2023-05-17T16:34:43.349Z,95732.72
2023-05-17T16:39:46.238Z,95774.84
2023-05-17T16:44:48.976Z,95774.34
2023-05-17T16:49:51.935Z,95738.22
2023-05-17T16:55:01.745Z,95768.81
2023-05-17T17:00:04.931Z,95774.72
2023-05-17T17:05:08.044Z,95751.38
2023-05-17T17:10:11.313Z,95772.41
2023-05-17T17:15:14.480Z,95762.72
2023-05-17T17:20:17.267Z,95769.19
2023-05-17T17:25:20.244Z,95784.16
2023-05-17T17:30:23.076Z,95784.50
2023-05-17T17:35:25.823Z,95771.44
2023-05-17T17:40:28.894Z,95751.09
2023-05-17T17:45:31.437Z,95771.94
2023-05-17T17:50:34.832Z,95777.78
2023-05-17T17:55:37.762Z,95775.50
2023-05-17T18:00:40.421Z,95785.19
2023-05-17T18:05:43.326Z,95780.16
2023-05-17T18:10:46.432Z,95761.81
2023-05-17T18:15:48.728Z,95783.09
2023-05-17T18:20:51.909Z,95802.16
2023-05-17T18:25:59.557Z,95797.31
2023-05-17T18:31:02.338Z,95773.91
2023-05-17T18:36:05.689Z,95772.34
2023-05-17T18:41:08.126Z,95782.13
2023-05-17T18:46:10.876Z,95793.28
2023-05-17T18:51:15.822Z,95776.28
2023-05-17T18:56:22.987Z,95770.13
2023-05-17T19:01:26.289Z,95781.81
2023-05-17T19:06:29.080Z,95811.56
2023-05-17T19:11:32.778Z,95788.84
2023-05-17T19:16:35.643Z,95777.59
2023-05-17T19:21:38.407Z,95776.78
2023-05-17T19:26:41.001Z,95783.88
2023-05-17T19:31:43.705Z,95777.88
2023-05-17T19:36:46.780Z,95759.59
2023-05-17T19:41:49.900Z,95789.69
2023-05-17T19:46:52.657Z,95761.59
2023-05-17T19:52:00.804Z,95738.81
2023-05-17T19:57:08.348Z,95783.59
2023-05-17T20:02:14.674Z,95774.25
2023-05-17T20:07:17.845Z,95746.22
2023-05-17T20:12:20.997Z,95756.41
2023-05-17T20:17:23.734Z,95756.34
2023-05-17T20:22:29.721Z,95716.84
2023-05-17T20:27:32.274Z,95749.13
2023-05-17T20:32:35.336Z,95717.56
2023-05-17T20:37:38.228Z,95759.78
2023-05-17T20:42:41.219Z,95758.06
2023-05-17T20:47:43.633Z,95759.72
2023-05-17T20:52:46.362Z,95765.16
2023-05-17T20:57:48.965Z,95774.00
2023-05-17T21:02:52.212Z,95782.84
2023-05-17T21:07:56.585Z,95778.09
2023-05-17T21:12:59.403Z,95763.97
2023-05-17T21:18:01.909Z,95776.41
2023-05-17T21:23:04.757Z,95779.03
2023-05-17T21:28:08.206Z,95766.81
2023-05-17T21:33:11.267Z,95775.06
2023-05-17T21:38:14.004Z,95786.47
2023-05-17T21:43:16.345Z,95775.69
2023-05-17T21:48:19.118Z,95794.22
2023-05-17T21:53:21.653Z,95763.84
2023-05-17T21:58:24.356Z,95780.72
2023-05-17T22:03:27.134Z,95763.97
2023-05-17T22:08:29.973Z,95748.59
2023-05-17T22:13:32.895Z,95745.75
2023-05-17T22:18:35.797Z,95760.09
2023-05-17T22:23:38.572Z,95730.06
2023-05-17T22:28:41.368Z,95742.75
2023-05-17T22:33:46.987Z,95761.41
2023-05-17T22:38:49.331Z,95762.25
2023-05-17T22:43:52.173Z,95766.44
2023-05-17T22:49:01.975Z,95744.94
2023-05-17T22:54:04.965Z,95735.25
2023-05-17T22:59:10.471Z,95748.59
2023-05-17T23:04:13.373Z,95717.47
2023-05-17T23:09:15.699Z,95736.25
2023-05-17T23:14:18.485Z,95750.72
2023-05-17T23:19:21.361Z,95752.41
2023-05-17T23:24:26.060Z,95719.66
2023-05-17T23:29:28.462Z,95718.00
2023-05-17T23:34:31.137Z,95724.44
2023-05-17T23:39:33.797Z,95718.59
2023-05-17T23:44:38.213Z,95725.94
2023-05-17T23:49:40.528Z,95708.81
2023-05-17T23:54:43.274Z,95752.19
2023-05-17T23:59:45.920Z,95745.03
